sensor_id;sensor_type;location;lat;lon;timestamp;P1;durP1;ratioP1;P2;durP2;ratioP2
10565;SDS011;5331;48.148;16.326;2023-05-31T00:02:21;3.92;;;2.85;;
10565;SDS011;5331;48.148;16.326;2023-05-31T00:04:48;5.22;;;2.80;;
10565;SDS011;5331;48.148;16.326;2023-05-31T00:07:14;3.38;;;2.75;;
10565;SDS011;5331;48.148;16.326;2023-05-31T00:09:41;4.80;;;2.90;;
10565;SDS011;5331;48.148;16.326;2023-05-31T00:12:08;3.33;;;2.97;;
10565;SDS011;5331;48.148;16.326;2023-05-31T00:14:37;4.32;;;2.75;;
10565;SDS011;5331;48.148;16.326;2023-05-31T00:17:04;4.97;;;2.70;;
10565;SDS011;5331;48.148;16.326;2023-05-31T00:19:31;5.70;;;2.90;;
10565;SDS011;5331;48.148;16.326;2023-05-31T00:21:58;3.30;;;2.75;;
10565;SDS011;5331;48.148;16.326;2023-05-31T00:24:25;3.50;;;2.45;;
10565;SDS011;5331;48.148;16.326;2023-05-31T00:26:52;3.38;;;2.53;;
10565;SDS011;5331;48.148;16.326;2023-05-31T00:29:19;3.95;;;2.78;;
10565;SDS011;5331;48.148;16.326;2023-05-31T00:31:47;3.47;;;2.50;;
10565;SDS011;5331;48.148;16.326;2023-05-31T00:34:14;2.92;;;2.50;;
10565;SDS011;5331;48.148;16.326;2023-05-31T00:36:41;4.60;;;2.65;;
10565;SDS011;5331;48.148;16.326;2023-05-31T00:39:07;3.72;;;2.60;;
10565;SDS011;5331;48.148;16.326;2023-05-31T00:41:35;5.50;;;3.05;;
10565;SDS011;5331;48.148;16.326;2023-05-31T00:44:02;4.95;;;2.95;;
10565;SDS011;5331;48.148;16.326;2023-05-31T00:46:31;5.30;;;2.90;;
10565;SDS011;5331;48.148;16.326;2023-05-31T00:49:00;3.75;;;3.15;;
10565;SDS011;5331;48.148;16.326;2023-05-31T00:51:28;4.13;;;3.10;;
10565;SDS011;5331;48.148;16.326;2023-05-31T00:53:57;3.85;;;2.90;;
10565;SDS011;5331;48.148;16.326;2023-05-31T00:56:25;3.80;;;2.85;;
10565;SDS011;5331;48.148;16.326;2023-05-31T00:58:53;4.22;;;2.90;;
10565;SDS011;5331;48.148;16.326;2023-05-31T01:01:22;3.10;;;2.72;;
10565;SDS011;5331;48.148;16.326;2023-05-31T01:03:51;3.42;;;2.88;;
10565;SDS011;5331;48.148;16.326;2023-05-31T01:06:20;3.85;;;2.83;;
10565;SDS011;5331;48.148;16.326;2023-05-31T01:08:48;4.47;;;2.83;;
10565;SDS011;5331;48.148;16.326;2023-05-31T01:11:17;4.95;;;3.00;;
10565;SDS011;5331;48.148;16.326;2023-05-31T01:13:54;3.80;;;2.85;;
10565;SDS011;5331;48.148;16.326;2023-05-31T01:16:28;4.15;;;2.60;;
10565;SDS011;5331;48.148;16.326;2023-05-31T01:19:01;5.55;;;2.78;;
10565;SDS011;5331;48.148;16.326;2023-05-31T01:24:25;3.97;;;2.70;;
10565;SDS011;5331;48.148;16.326;2023-05-31T01:27:03;3.42;;;2.78;;
10565;SDS011;5331;48.148;16.326;2023-05-31T01:29:32;3.92;;;2.72;;
10565;SDS011;5331;48.148;16.326;2023-05-31T01:32:01;3.35;;;2.65;;
10565;SDS011;5331;48.148;16.326;2023-05-31T01:34:30;3.15;;;2.85;;
10565;SDS011;5331;48.148;16.326;2023-05-31T01:36:56;3.67;;;2.72;;
10565;SDS011;5331;48.148;16.326;2023-05-31T01:39:23;3.78;;;2.50;;
10565;SDS011;5331;48.148;16.326;2023-05-31T01:41:51;4.43;;;2.72;;
10565;SDS011;5331;48.148;16.326;2023-05-31T01:44:20;6.97;;;3.03;;
10565;SDS011;5331;48.148;16.326;2023-05-31T01:46:47;3.35;;;2.35;;
10565;SDS011;5331;48.148;16.326;2023-05-31T01:49:15;6.00;;;2.83;;
10565;SDS011;5331;48.148;16.326;2023-05-31T01:51:43;4.90;;;2.80;;
10565;SDS011;5331;48.148;16.326;2023-05-31T01:54:12;4.15;;;2.95;;
10565;SDS011;5331;48.148;16.326;2023-05-31T01:56:39;3.65;;;2.85;;
10565;SDS011;5331;48.148;16.326;2023-05-31T01:59:08;3.92;;;2.78;;
10565;SDS011;5331;48.148;16.326;2023-05-31T02:01:37;2.85;;;2.63;;
10565;SDS011;5331;48.148;16.326;2023-05-31T02:04:05;5.13;;;2.70;;
10565;SDS011;5331;48.148;16.326;2023-05-31T02:06:34;3.42;;;2.92;;
10565;SDS011;5331;48.148;16.326;2023-05-31T02:09:02;3.47;;;2.70;;
10565;SDS011;5331;48.148;16.326;2023-05-31T02:11:29;4.82;;;2.88;;
10565;SDS011;5331;48.148;16.326;2023-05-31T02:13:56;4.72;;;3.05;;
10565;SDS011;5331;48.148;16.326;2023-05-31T02:16:23;3.40;;;2.85;;
10565;SDS011;5331;48.148;16.326;2023-05-31T02:18:51;4.60;;;2.88;;
10565;SDS011;5331;48.148;16.326;2023-05-31T02:21:18;3.75;;;3.10;;
10565;SDS011;5331;48.148;16.326;2023-05-31T02:23:45;5.78;;;3.20;;
10565;SDS011;5331;48.148;16.326;2023-05-31T02:26:11;5.88;;;4.20;;
10565;SDS011;5331;48.148;16.326;2023-05-31T02:28:38;7.57;;;4.40;;
10565;SDS011;5331;48.148;16.326;2023-05-31T02:31:05;6.85;;;4.47;;
10565;SDS011;5331;48.148;16.326;2023-05-31T02:33:32;6.38;;;4.32;;
10565;SDS011;5331;48.148;16.326;2023-05-31T02:36:00;4.90;;;3.50;;
10565;SDS011;5331;48.148;16.326;2023-05-31T02:38:27;5.70;;;3.35;;
10565;SDS011;5331;48.148;16.326;2023-05-31T02:40:54;5.13;;;2.70;;
10565;SDS011;5331;48.148;16.326;2023-05-31T02:43:21;5.93;;;3.20;;
10565;SDS011;5331;48.148;16.326;2023-05-31T02:45:48;5.82;;;3.08;;
10565;SDS011;5331;48.148;16.326;2023-05-31T02:48:15;3.47;;;2.80;;
10565;SDS011;5331;48.148;16.326;2023-05-31T02:50:42;4.45;;;2.92;;
10565;SDS011;5331;48.148;16.326;2023-05-31T02:53:10;3.75;;;3.40;;
10565;SDS011;5331;48.148;16.326;2023-05-31T02:55:37;4.90;;;2.70;;
10565;SDS011;5331;48.148;16.326;2023-05-31T02:58:04;6.68;;;2.97;;
10565;SDS011;5331;48.148;16.326;2023-05-31T03:00:31;6.15;;;3.25;;
10565;SDS011;5331;48.148;16.326;2023-05-31T03:02:58;4.00;;;2.85;;
10565;SDS011;5331;48.148;16.326;2023-05-31T03:05:25;5.00;;;2.80;;
10565;SDS011;5331;48.148;16.326;2023-05-31T03:07:54;6.45;;;2.88;;
10565;SDS011;5331;48.148;16.326;2023-05-31T03:10:22;3.88;;;2.70;;
10565;SDS011;5331;48.148;16.326;2023-05-31T03:12:49;4.72;;;2.83;;
10565;SDS011;5331;48.148;16.326;2023-05-31T03:15:16;7.35;;;2.80;;
10565;SDS011;5331;48.148;16.326;2023-05-31T03:17:43;2.92;;;2.65;;
10565;SDS011;5331;48.148;16.326;2023-05-31T03:20:10;5.30;;;2.97;;
10565;SDS011;5331;48.148;16.326;2023-05-31T03:22:37;4.53;;;2.90;;
10565;SDS011;5331;48.148;16.326;2023-05-31T03:25:04;4.97;;;3.03;;
10565;SDS011;5331;48.148;16.326;2023-05-31T03:27:33;4.75;;;2.80;;
10565;SDS011;5331;48.148;16.326;2023-05-31T03:30:00;9.80;;;2.97;;
10565;SDS011;5331;48.148;16.326;2023-05-31T03:32:27;4.00;;;2.65;;
10565;SDS011;5331;48.148;16.326;2023-05-31T03:34:54;5.32;;;2.78;;
10565;SDS011;5331;48.148;16.326;2023-05-31T03:37:21;4.30;;;2.95;;
10565;SDS011;5331;48.148;16.326;2023-05-31T03:39:48;5.22;;;2.67;;
10565;SDS011;5331;48.148;16.326;2023-05-31T03:42:15;4.53;;;2.95;;
10565;SDS011;5331;48.148;16.326;2023-05-31T03:44:43;5.22;;;2.58;;
10565;SDS011;5331;48.148;16.326;2023-05-31T03:47:10;4.05;;;2.47;;
10565;SDS011;5331;48.148;16.326;2023-05-31T03:49:37;3.33;;;2.80;;
10565;SDS011;5331;48.148;16.326;2023-05-31T03:52:04;3.70;;;2.53;;
10565;SDS011;5331;48.148;16.326;2023-05-31T03:54:34;3.67;;;2.42;;
10565;SDS011;5331;48.148;16.326;2023-05-31T03:57:01;3.90;;;2.75;;
10565;SDS011;5331;48.148;16.326;2023-05-31T03:59:28;2.95;;;2.65;;
10565;SDS011;5331;48.148;16.326;2023-05-31T04:01:56;5.32;;;2.38;;
10565;SDS011;5331;48.148;16.326;2023-05-31T04:04:23;7.22;;;2.75;;
10565;SDS011;5331;48.148;16.326;2023-05-31T04:06:50;3.28;;;2.60;;
10565;SDS011;5331;48.148;16.326;2023-05-31T04:09:17;2.80;;;2.42;;
10565;SDS011;5331;48.148;16.326;2023-05-31T04:11:44;4.10;;;2.80;;
10565;SDS011;5331;48.148;16.326;2023-05-31T04:14:11;3.30;;;2.45;;
10565;SDS011;5331;48.148;16.326;2023-05-31T04:16:38;5.47;;;2.55;;
10565;SDS011;5331;48.148;16.326;2023-05-31T04:19:06;3.05;;;2.72;;
10565;SDS011;5331;48.148;16.326;2023-05-31T04:21:33;4.05;;;2.63;;
10565;SDS011;5331;48.148;16.326;2023-05-31T04:24:00;4.07;;;2.70;;
10565;SDS011;5331;48.148;16.326;2023-05-31T04:26:27;5.13;;;2.70;;
10565;SDS011;5331;48.148;16.326;2023-05-31T04:28:57;4.40;;;2.45;;
10565;SDS011;5331;48.148;16.326;2023-05-31T04:31:24;5.47;;;2.67;;
10565;SDS011;5331;48.148;16.326;2023-05-31T04:33:53;6.80;;;2.92;;
10565;SDS011;5331;48.148;16.326;2023-05-31T04:36:23;5.22;;;3.10;;
10565;SDS011;5331;48.148;16.326;2023-05-31T04:38:50;4.63;;;2.90;;
10565;SDS011;5331;48.148;16.326;2023-05-31T04:41:20;3.17;;;2.70;;
10565;SDS011;5331;48.148;16.326;2023-05-31T04:43:51;4.15;;;2.70;;
10565;SDS011;5331;48.148;16.326;2023-05-31T04:46:18;4.65;;;2.75;;
10565;SDS011;5331;48.148;16.326;2023-05-31T04:48:46;7.97;;;3.00;;
10565;SDS011;5331;48.148;16.326;2023-05-31T04:51:16;4.25;;;2.55;;
10565;SDS011;5331;48.148;16.326;2023-05-31T04:53:45;5.28;;;3.05;;
10565;SDS011;5331;48.148;16.326;2023-05-31T04:56:12;5.18;;;2.90;;
10565;SDS011;5331;48.148;16.326;2023-05-31T04:58:39;4.63;;;2.83;;
10565;SDS011;5331;48.148;16.326;2023-05-31T05:01:07;4.55;;;2.80;;
10565;SDS011;5331;48.148;16.326;2023-05-31T05:03:34;3.90;;;2.53;;
10565;SDS011;5331;48.148;16.326;2023-05-31T05:06:01;4.20;;;3.30;;
10565;SDS011;5331;48.148;16.326;2023-05-31T05:08:37;5.60;;;3.35;;
10565;SDS011;5331;48.148;16.326;2023-05-31T05:11:06;7.18;;;3.65;;
10565;SDS011;5331;48.148;16.326;2023-05-31T05:13:34;5.80;;;3.70;;
10565;SDS011;5331;48.148;16.326;2023-05-31T05:16:01;4.72;;;3.42;;
10565;SDS011;5331;48.148;16.326;2023-05-31T05:18:28;5.57;;;3.80;;
10565;SDS011;5331;48.148;16.326;2023-05-31T05:20:55;5.30;;;4.10;;
10565;SDS011;5331;48.148;16.326;2023-05-31T05:23:22;7.28;;;4.25;;
10565;SDS011;5331;48.148;16.326;2023-05-31T05:25:49;5.93;;;3.58;;
10565;SDS011;5331;48.148;16.326;2023-05-31T05:28:18;4.30;;;2.88;;
10565;SDS011;5331;48.148;16.326;2023-05-31T05:30:45;3.58;;;2.63;;
10565;SDS011;5331;48.148;16.326;2023-05-31T05:33:12;4.63;;;2.80;;
10565;SDS011;5331;48.148;16.326;2023-05-31T05:35:39;4.63;;;2.55;;
10565;SDS011;5331;48.148;16.326;2023-05-31T05:38:07;2.88;;;2.50;;
10565;SDS011;5331;48.148;16.326;2023-05-31T05:40:34;3.13;;;2.83;;
10565;SDS011;5331;48.148;16.326;2023-05-31T05:43:01;4.13;;;2.80;;
10565;SDS011;5331;48.148;16.326;2023-05-31T05:45:30;4.72;;;2.90;;
10565;SDS011;5331;48.148;16.326;2023-05-31T05:47:57;4.20;;;2.85;;
10565;SDS011;5331;48.148;16.326;2023-05-31T05:50:24;3.22;;;2.63;;
10565;SDS011;5331;48.148;16.326;2023-05-31T05:52:51;4.22;;;3.22;;
10565;SDS011;5331;48.148;16.326;2023-05-31T05:55:18;8.63;;;3.22;;
10565;SDS011;5331;48.148;16.326;2023-05-31T05:57:47;4.93;;;2.90;;
10565;SDS011;5331;48.148;16.326;2023-05-31T06:00:16;6.47;;;2.97;;
10565;SDS011;5331;48.148;16.326;2023-05-31T06:02:45;5.32;;;3.00;;
10565;SDS011;5331;48.148;16.326;2023-05-31T06:05:12;6.38;;;2.97;;
10565;SDS011;5331;48.148;16.326;2023-05-31T06:07:39;3.50;;;2.75;;
10565;SDS011;5331;48.148;16.326;2023-05-31T06:10:07;3.88;;;3.00;;
10565;SDS011;5331;48.148;16.326;2023-05-31T06:12:34;3.92;;;3.00;;
10565;SDS011;5331;48.148;16.326;2023-05-31T06:15:01;4.30;;;2.78;;
10565;SDS011;5331;48.148;16.326;2023-05-31T06:17:28;4.00;;;3.05;;
10565;SDS011;5331;48.148;16.326;2023-05-31T06:19:57;2.90;;;2.60;;
10565;SDS011;5331;48.148;16.326;2023-05-31T06:22:23;5.97;;;2.85;;
10565;SDS011;5331;48.148;16.326;2023-05-31T06:24:50;5.28;;;3.00;;
10565;SDS011;5331;48.148;16.326;2023-05-31T06:27:19;4.05;;;2.70;;
10565;SDS011;5331;48.148;16.326;2023-05-31T06:29:46;5.75;;;3.08;;
10565;SDS011;5331;48.148;16.326;2023-05-31T06:32:20;5.43;;;3.33;;
10565;SDS011;5331;48.148;16.326;2023-05-31T06:34:48;7.50;;;3.22;;
10565;SDS011;5331;48.148;16.326;2023-05-31T06:37:16;5.75;;;3.15;;
10565;SDS011;5331;48.148;16.326;2023-05-31T06:39:43;4.60;;;3.28;;
10565;SDS011;5331;48.148;16.326;2023-05-31T06:42:10;7.45;;;3.60;;
10565;SDS011;5331;48.148;16.326;2023-05-31T06:44:40;5.05;;;2.90;;
10565;SDS011;5331;48.148;16.326;2023-05-31T06:47:07;3.65;;;3.10;;
10565;SDS011;5331;48.148;16.326;2023-05-31T06:49:35;5.32;;;3.50;;
10565;SDS011;5331;48.148;16.326;2023-05-31T06:52:02;5.55;;;3.08;;
10565;SDS011;5331;48.148;16.326;2023-05-31T06:54:33;5.32;;;3.25;;
10565;SDS011;5331;48.148;16.326;2023-05-31T06:57:01;3.78;;;3.00;;
10565;SDS011;5331;48.148;16.326;2023-05-31T06:59:28;5.93;;;3.25;;
10565;SDS011;5331;48.148;16.326;2023-05-31T07:01:55;4.82;;;3.00;;
10565;SDS011;5331;48.148;16.326;2023-05-31T07:04:22;5.35;;;3.05;;
10565;SDS011;5331;48.148;16.326;2023-05-31T07:06:49;4.20;;;3.10;;
10565;SDS011;5331;48.148;16.326;2023-05-31T07:09:16;4.65;;;3.22;;
10565;SDS011;5331;48.148;16.326;2023-05-31T07:11:44;4.40;;;3.20;;
10565;SDS011;5331;48.148;16.326;2023-05-31T07:14:11;5.05;;;3.17;;
10565;SDS011;5331;48.148;16.326;2023-05-31T07:16:38;5.30;;;3.13;;
10565;SDS011;5331;48.148;16.326;2023-05-31T07:19:05;3.55;;;3.13;;
10565;SDS011;5331;48.148;16.326;2023-05-31T07:21:33;5.38;;;2.97;;
10565;SDS011;5331;48.148;16.326;2023-05-31T07:24:01;4.70;;;3.03;;
10565;SDS011;5331;48.148;16.326;2023-05-31T07:26:28;4.80;;;3.20;;
10565;SDS011;5331;48.148;16.326;2023-05-31T07:28:57;3.72;;;3.08;;
10565;SDS011;5331;48.148;16.326;2023-05-31T07:31:24;3.55;;;3.22;;
10565;SDS011;5331;48.148;16.326;2023-05-31T07:33:52;4.68;;;3.10;;
10565;SDS011;5331;48.148;16.326;2023-05-31T07:36:20;3.88;;;3.13;;
10565;SDS011;5331;48.148;16.326;2023-05-31T07:38:50;3.30;;;3.03;;
10565;SDS011;5331;48.148;16.326;2023-05-31T07:41:17;6.22;;;3.20;;
10565;SDS011;5331;48.148;16.326;2023-05-31T07:43:44;5.63;;;3.50;;
10565;SDS011;5331;48.148;16.326;2023-05-31T07:46:13;3.63;;;3.25;;
10565;SDS011;5331;48.148;16.326;2023-05-31T07:48:40;5.47;;;3.33;;
10565;SDS011;5331;48.148;16.326;2023-05-31T07:51:10;4.68;;;3.30;;
10565;SDS011;5331;48.148;16.326;2023-05-31T07:53:37;5.20;;;3.50;;
10565;SDS011;5331;48.148;16.326;2023-05-31T07:56:06;4.78;;;3.10;;
10565;SDS011;5331;48.148;16.326;2023-05-31T07:58:33;5.90;;;3.47;;
10565;SDS011;5331;48.148;16.326;2023-05-31T08:01:01;4.65;;;3.25;;
10565;SDS011;5331;48.148;16.326;2023-05-31T08:03:30;6.90;;;3.60;;
10565;SDS011;5331;48.148;16.326;2023-05-31T08:05:57;6.15;;;3.53;;
10565;SDS011;5331;48.148;16.326;2023-05-31T08:08:24;5.47;;;3.50;;
10565;SDS011;5331;48.148;16.326;2023-05-31T08:10:53;6.93;;;3.50;;
10565;SDS011;5331;48.148;16.326;2023-05-31T08:13:20;5.18;;;3.60;;
10565;SDS011;5331;48.148;16.326;2023-05-31T08:15:48;4.63;;;3.47;;
10565;SDS011;5331;48.148;16.326;2023-05-31T08:18:17;4.25;;;3.33;;
10565;SDS011;5331;48.148;16.326;2023-05-31T08:20:45;6.55;;;3.45;;
10565;SDS011;5331;48.148;16.326;2023-05-31T08:23:16;6.40;;;3.30;;
10565;SDS011;5331;48.148;16.326;2023-05-31T08:25:44;4.70;;;2.95;;
10565;SDS011;5331;48.148;16.326;2023-05-31T08:28:11;4.82;;;3.42;;
10565;SDS011;5331;48.148;16.326;2023-05-31T08:30:38;5.47;;;3.25;;
10565;SDS011;5331;48.148;16.326;2023-05-31T08:33:05;7.85;;;3.95;;
10565;SDS011;5331;48.148;16.326;2023-05-31T08:35:32;5.03;;;3.33;;
10565;SDS011;5331;48.148;16.326;2023-05-31T08:38:00;5.00;;;3.25;;
10565;SDS011;5331;48.148;16.326;2023-05-31T08:40:28;5.30;;;3.20;;
10565;SDS011;5331;48.148;16.326;2023-05-31T08:42:58;4.63;;;3.13;;
10565;SDS011;5331;48.148;16.326;2023-05-31T08:45:28;5.25;;;3.30;;
10565;SDS011;5331;48.148;16.326;2023-05-31T08:47:57;6.22;;;3.50;;
10565;SDS011;5331;48.148;16.326;2023-05-31T08:50:28;6.90;;;3.60;;
10565;SDS011;5331;48.148;16.326;2023-05-31T08:52:57;6.03;;;3.70;;
10565;SDS011;5331;48.148;16.326;2023-05-31T08:55:26;4.65;;;3.30;;
10565;SDS011;5331;48.148;16.326;2023-05-31T08:57:56;6.68;;;3.53;;
10565;SDS011;5331;48.148;16.326;2023-05-31T09:00:23;4.90;;;3.88;;
10565;SDS011;5331;48.148;16.326;2023-05-31T09:02:51;4.05;;;3.42;;
10565;SDS011;5331;48.148;16.326;2023-05-31T09:05:19;3.85;;;3.45;;
10565;SDS011;5331;48.148;16.326;2023-05-31T09:07:46;4.95;;;3.80;;
10565;SDS011;5331;48.148;16.326;2023-05-31T09:10:14;7.32;;;3.92;;
10565;SDS011;5331;48.148;16.326;2023-05-31T09:12:43;5.32;;;3.80;;
10565;SDS011;5331;48.148;16.326;2023-05-31T09:15:12;7.28;;;3.75;;
10565;SDS011;5331;48.148;16.326;2023-05-31T09:17:44;7.78;;;3.90;;
10565;SDS011;5331;48.148;16.326;2023-05-31T09:20:11;6.20;;;3.70;;
10565;SDS011;5331;48.148;16.326;2023-05-31T09:22:39;5.90;;;3.85;;
10565;SDS011;5331;48.148;16.326;2023-05-31T09:25:06;6.15;;;4.03;;
10565;SDS011;5331;48.148;16.326;2023-05-31T09:27:35;5.50;;;3.67;;
10565;SDS011;5331;48.148;16.326;2023-05-31T09:30:05;5.10;;;3.88;;
10565;SDS011;5331;48.148;16.326;2023-05-31T09:32:34;7.45;;;4.30;;
10565;SDS011;5331;48.148;16.326;2023-05-31T09:35:11;4.35;;;3.90;;
10565;SDS011;5331;48.148;16.326;2023-05-31T09:37:42;5.20;;;4.00;;
10565;SDS011;5331;48.148;16.326;2023-05-31T09:40:12;7.95;;;4.30;;
10565;SDS011;5331;48.148;16.326;2023-05-31T09:42:46;5.60;;;3.85;;
10565;SDS011;5331;48.148;16.326;2023-05-31T09:45:15;5.78;;;4.20;;
10565;SDS011;5331;48.148;16.326;2023-05-31T09:47:42;5.30;;;3.90;;
10565;SDS011;5331;48.148;16.326;2023-05-31T09:50:09;5.07;;;3.95;;
10565;SDS011;5331;48.148;16.326;2023-05-31T09:52:37;7.13;;;3.85;;
10565;SDS011;5331;48.148;16.326;2023-05-31T09:55:04;6.93;;;4.13;;
10565;SDS011;5331;48.148;16.326;2023-05-31T09:57:33;5.20;;;4.00;;
10565;SDS011;5331;48.148;16.326;2023-05-31T10:00:07;5.88;;;4.28;;
10565;SDS011;5331;48.148;16.326;2023-05-31T10:02:42;5.78;;;4.20;;
10565;SDS011;5331;48.148;16.326;2023-05-31T10:05:09;6.03;;;4.03;;
10565;SDS011;5331;48.148;16.326;2023-05-31T10:07:37;5.78;;;3.92;;
10565;SDS011;5331;48.148;16.326;2023-05-31T10:10:06;9.13;;;4.10;;
10565;SDS011;5331;48.148;16.326;2023-05-31T10:12:39;6.10;;;4.32;;
10565;SDS011;5331;48.148;16.326;2023-05-31T10:15:11;4.80;;;4.15;;
10565;SDS011;5331;48.148;16.326;2023-05-31T10:17:45;9.27;;;4.50;;
10565;SDS011;5331;48.148;16.326;2023-05-31T10:20:18;6.85;;;4.28;;
10565;SDS011;5331;48.148;16.326;2023-05-31T10:22:46;5.10;;;4.15;;
10565;SDS011;5331;48.148;16.326;2023-05-31T10:25:22;5.65;;;4.10;;
10565;SDS011;5331;48.148;16.326;2023-05-31T10:27:55;5.32;;;4.50;;
10565;SDS011;5331;48.148;16.326;2023-05-31T10:30:27;5.13;;;4.20;;
10565;SDS011;5331;48.148;16.326;2023-05-31T10:35:31;6.22;;;4.25;;
10565;SDS011;5331;48.148;16.326;2023-05-31T10:37:59;5.32;;;4.30;;
10565;SDS011;5331;48.148;16.326;2023-05-31T10:40:30;4.35;;;3.95;;
10565;SDS011;5331;48.148;16.326;2023-05-31T10:43:03;5.30;;;3.85;;
10565;SDS011;5331;48.148;16.326;2023-05-31T10:45:36;6.15;;;4.15;;
10565;SDS011;5331;48.148;16.326;2023-05-31T10:48:09;4.68;;;4.22;;
10565;SDS011;5331;48.148;16.326;2023-05-31T10:50:50;4.88;;;4.10;;
10565;SDS011;5331;48.148;16.326;2023-05-31T10:53:18;5.90;;;4.25;;
10565;SDS011;5331;48.148;16.326;2023-05-31T10:55:46;5.53;;;3.90;;
10565;SDS011;5331;48.148;16.326;2023-05-31T10:58:24;7.05;;;4.43;;
10565;SDS011;5331;48.148;16.326;2023-05-31T11:00:52;5.05;;;4.50;;
10565;SDS011;5331;48.148;16.326;2023-05-31T11:03:22;6.20;;;4.25;;
10565;SDS011;5331;48.148;16.326;2023-05-31T11:05:56;4.72;;;3.95;;
10565;SDS011;5331;48.148;16.326;2023-05-31T11:08:24;4.50;;;4.10;;
10565;SDS011;5331;48.148;16.326;2023-05-31T11:10:51;6.55;;;4.78;;
10565;SDS011;5331;48.148;16.326;2023-05-31T11:13:18;7.78;;;4.78;;
10565;SDS011;5331;48.148;16.326;2023-05-31T11:15:46;6.90;;;4.60;;
10565;SDS011;5331;48.148;16.326;2023-05-31T11:18:14;5.55;;;4.35;;
10565;SDS011;5331;48.148;16.326;2023-05-31T11:20:43;6.65;;;4.55;;
10565;SDS011;5331;48.148;16.326;2023-05-31T11:23:23;6.00;;;4.55;;
10565;SDS011;5331;48.148;16.326;2023-05-31T11:26:14;6.32;;;4.18;;
10565;SDS011;5331;48.148;16.326;2023-05-31T11:28:50;7.30;;;4.30;;
10565;SDS011;5331;48.148;16.326;2023-05-31T11:34:24;5.05;;;4.20;;
10565;SDS011;5331;48.148;16.326;2023-05-31T11:36:57;5.13;;;4.28;;
10565;SDS011;5331;48.148;16.326;2023-05-31T11:39:25;5.72;;;4.10;;
10565;SDS011;5331;48.148;16.326;2023-05-31T11:41:53;4.40;;;4.10;;
10565;SDS011;5331;48.148;16.326;2023-05-31T11:44:20;6.50;;;4.25;;
10565;SDS011;5331;48.148;16.326;2023-05-31T11:46:55;7.35;;;4.80;;
10565;SDS011;5331;48.148;16.326;2023-05-31T11:49:27;5.63;;;4.43;;
10565;SDS011;5331;48.148;16.326;2023-05-31T11:51:57;6.20;;;4.88;;
10565;SDS011;5331;48.148;16.326;2023-05-31T11:54:25;5.60;;;4.40;;
10565;SDS011;5331;48.148;16.326;2023-05-31T11:56:59;5.63;;;4.70;;
10565;SDS011;5331;48.148;16.326;2023-05-31T11:59:27;6.75;;;4.82;;
10565;SDS011;5331;48.148;16.326;2023-05-31T12:01:57;6.32;;;4.30;;
10565;SDS011;5331;48.148;16.326;2023-05-31T12:04:29;5.20;;;4.45;;
10565;SDS011;5331;48.148;16.326;2023-05-31T12:06:58;5.72;;;4.90;;
10565;SDS011;5331;48.148;16.326;2023-05-31T12:09:25;5.47;;;4.68;;
10565;SDS011;5331;48.148;16.326;2023-05-31T12:11:53;5.47;;;4.90;;
10565;SDS011;5331;48.148;16.326;2023-05-31T12:14:22;8.57;;;4.78;;
10565;SDS011;5331;48.148;16.326;2023-05-31T12:16:50;6.20;;;4.68;;
10565;SDS011;5331;48.148;16.326;2023-05-31T12:22:17;5.50;;;4.95;;
10565;SDS011;5331;48.148;16.326;2023-05-31T12:24:47;5.10;;;4.13;;
10565;SDS011;5331;48.148;16.326;2023-05-31T12:27:15;6.15;;;4.65;;
10565;SDS011;5331;48.148;16.326;2023-05-31T12:29:42;5.55;;;4.88;;
10565;SDS011;5331;48.148;16.326;2023-05-31T12:32:09;6.45;;;4.40;;
10565;SDS011;5331;48.148;16.326;2023-05-31T12:34:37;5.05;;;4.60;;
10565;SDS011;5331;48.148;16.326;2023-05-31T12:37:05;6.75;;;4.50;;
10565;SDS011;5331;48.148;16.326;2023-05-31T12:39:34;5.95;;;5.07;;
10565;SDS011;5331;48.148;16.326;2023-05-31T12:42:02;5.82;;;4.78;;
10565;SDS011;5331;48.148;16.326;2023-05-31T12:44:31;5.40;;;4.75;;
10565;SDS011;5331;48.148;16.326;2023-05-31T12:46:59;5.47;;;4.50;;
10565;SDS011;5331;48.148;16.326;2023-05-31T12:49:28;6.88;;;4.53;;
10565;SDS011;5331;48.148;16.326;2023-05-31T12:51:58;7.72;;;4.93;;
10565;SDS011;5331;48.148;16.326;2023-05-31T12:54:26;6.28;;;4.80;;
10565;SDS011;5331;48.148;16.326;2023-05-31T12:56:57;7.20;;;4.90;;
10565;SDS011;5331;48.148;16.326;2023-05-31T12:59:26;7.30;;;5.05;;
10565;SDS011;5331;48.148;16.326;2023-05-31T13:01:54;6.28;;;4.50;;
10565;SDS011;5331;48.148;16.326;2023-05-31T13:04:21;6.30;;;4.75;;
10565;SDS011;5331;48.148;16.326;2023-05-31T13:06:48;6.20;;;4.93;;
10565;SDS011;5331;48.148;16.326;2023-05-31T13:09:15;5.00;;;4.47;;
10565;SDS011;5331;48.148;16.326;2023-05-31T13:11:43;5.47;;;4.80;;
10565;SDS011;5331;48.148;16.326;2023-05-31T13:14:15;6.15;;;5.18;;
10565;SDS011;5331;48.148;16.326;2023-05-31T13:16:43;5.55;;;4.72;;
10565;SDS011;5331;48.148;16.326;2023-05-31T13:19:10;6.30;;;4.63;;
10565;SDS011;5331;48.148;16.326;2023-05-31T13:21:38;7.70;;;4.95;;
10565;SDS011;5331;48.148;16.326;2023-05-31T13:24:06;7.45;;;4.82;;
10565;SDS011;5331;48.148;16.326;2023-05-31T13:26:33;5.78;;;5.28;;
10565;SDS011;5331;48.148;16.326;2023-05-31T13:29:01;6.55;;;4.93;;
10565;SDS011;5331;48.148;16.326;2023-05-31T13:31:31;4.97;;;4.55;;
10565;SDS011;5331;48.148;16.326;2023-05-31T13:34:00;5.35;;;4.80;;
10565;SDS011;5331;48.148;16.326;2023-05-31T13:36:27;5.53;;;4.55;;
10565;SDS011;5331;48.148;16.326;2023-05-31T13:38:54;6.00;;;4.43;;
10565;SDS011;5331;48.148;16.326;2023-05-31T13:41:21;5.40;;;4.95;;
10565;SDS011;5331;48.148;16.326;2023-05-31T13:43:50;5.43;;;4.45;;
10565;SDS011;5331;48.148;16.326;2023-05-31T13:46:17;5.13;;;4.50;;
10565;SDS011;5331;48.148;16.326;2023-05-31T13:48:46;5.15;;;4.65;;
10565;SDS011;5331;48.148;16.326;2023-05-31T13:51:13;7.50;;;5.18;;
10565;SDS011;5331;48.148;16.326;2023-05-31T13:53:41;7.68;;;5.10;;
10565;SDS011;5331;48.148;16.326;2023-05-31T13:56:07;5.88;;;4.38;;
10565;SDS011;5331;48.148;16.326;2023-05-31T13:58:35;7.57;;;4.90;;
10565;SDS011;5331;48.148;16.326;2023-05-31T14:01:02;5.38;;;4.55;;
10565;SDS011;5331;48.148;16.326;2023-05-31T14:03:30;5.45;;;4.75;;
10565;SDS011;5331;48.148;16.326;2023-05-31T14:05:58;9.02;;;4.68;;
10565;SDS011;5331;48.148;16.326;2023-05-31T14:08:26;6.80;;;4.70;;
10565;SDS011;5331;48.148;16.326;2023-05-31T14:10:53;5.82;;;4.53;;
10565;SDS011;5331;48.148;16.326;2023-05-31T14:13:21;6.18;;;4.63;;
10565;SDS011;5331;48.148;16.326;2023-05-31T14:15:48;7.28;;;4.90;;
10565;SDS011;5331;48.148;16.326;2023-05-31T14:18:15;5.18;;;4.65;;
10565;SDS011;5331;48.148;16.326;2023-05-31T14:20:42;6.38;;;4.57;;
10565;SDS011;5331;48.148;16.326;2023-05-31T14:23:11;6.65;;;4.63;;
10565;SDS011;5331;48.148;16.326;2023-05-31T14:25:38;8.02;;;4.72;;
10565;SDS011;5331;48.148;16.326;2023-05-31T14:28:05;4.85;;;4.35;;
10565;SDS011;5331;48.148;16.326;2023-05-31T14:30:32;5.22;;;4.60;;
10565;SDS011;5331;48.148;16.326;2023-05-31T14:33:02;6.45;;;4.65;;
10565;SDS011;5331;48.148;16.326;2023-05-31T14:35:29;6.53;;;4.32;;
10565;SDS011;5331;48.148;16.326;2023-05-31T14:37:56;5.50;;;4.32;;
10565;SDS011;5331;48.148;16.326;2023-05-31T14:40:25;6.03;;;4.30;;
10565;SDS011;5331;48.148;16.326;2023-05-31T14:42:52;6.95;;;4.32;;
10565;SDS011;5331;48.148;16.326;2023-05-31T14:45:19;5.57;;;4.40;;
10565;SDS011;5331;48.148;16.326;2023-05-31T14:47:46;6.05;;;4.78;;
10565;SDS011;5331;48.148;16.326;2023-05-31T14:50:13;5.53;;;4.40;;
10565;SDS011;5331;48.148;16.326;2023-05-31T14:52:40;5.43;;;4.32;;
10565;SDS011;5331;48.148;16.326;2023-05-31T14:55:07;4.80;;;4.35;;
10565;SDS011;5331;48.148;16.326;2023-05-31T14:57:37;5.18;;;4.10;;
10565;SDS011;5331;48.148;16.326;2023-05-31T15:00:06;4.70;;;4.25;;
10565;SDS011;5331;48.148;16.326;2023-05-31T15:02:34;6.82;;;4.53;;
10565;SDS011;5331;48.148;16.326;2023-05-31T15:05:01;4.35;;;4.00;;
10565;SDS011;5331;48.148;16.326;2023-05-31T15:07:28;8.13;;;4.28;;